Time;durP1;ratioP1;P1;durP2;ratioP2;P2;SDS_P1;SDS_P2;PMS_P1;PMS_P2;Temp;Humidity;BMP_temperature;BMP_pressure;BME280_temperature;BME280_humidity;BME280_pressure;Samples;Min_cycle;Max_cycle;Signal;HPM_P1;HPM_P2
2022/04/02 00:02:39;;;;;;;11.65;5.58;;;;;;;3.22;61.53;99171.17;2926376;79;21063;-82
2022/04/02 00:06:40;;;;;;;14.58;7.70;;;;;;;3.12;62.53;99176.68;2878195;79;21098;-83
2022/04/02 00:10:42;;;;;;;8.90;6.53;;;;;;;2.97;63.75;99176.80;2902353;79;21118;-83
2022/04/02 00:14:45;;;;;;;12.68;6.87;;;;;;;2.82;66.25;99160.28;2948606;79;21748;-83
2022/04/02 00:18:49;;;;;;;12.03;5.62;;;;;;;2.73;67.05;99170.56;2935012;79;21058;-84
2022/04/02 00:27:11;;;;;;;17.80;5.62;;;;;;;2.42;70.33;99173.45;2903752;80;21075;-83
2022/04/02 00:31:15;;;;;;;13.10;6.78;;;;;;;2.31;70.94;99170.70;2928149;78;21063;-83
2022/04/02 00:35:17;;;;;;;11.22;6.50;;;;;;;2.27;71.16;99172.67;2918877;79;21051;-83
2022/04/02 00:39:20;;;;;;;12.15;6.22;;;;;;;2.22;72.00;99182.64;2888061;79;21034;-83
2022/04/02 00:43:30;;;;;;;7.80;4.97;;;;;;;2.18;72.95;99186.41;2947770;79;21089;-83
2022/04/02 00:47:32;;;;;;;11.53;7.05;;;;;;;2.09;72.88;99189.16;2944236;79;21615;-83
2022/04/02 00:51:41;;;;;;;14.30;7.53;;;;;;;2.07;73.71;99179.23;2933321;79;21019;-82
2022/04/02 00:55:38;;;;;;;9.98;5.65;;;;;;;2.09;74.27;99182.11;2938450;79;21026;-83
2022/04/02 00:59:40;;;;;;;8.48;6.03;;;;;;;2.07;73.71;99174.81;2928636;79;21589;-83
2022/04/02 01:03:41;;;;;;;8.18;6.33;;;;;;;2.03;74.01;99186.45;2903330;79;21554;-83
2022/04/02 01:07:43;;;;;;;17.15;7.00;;;;;;;2.04;74.67;99181.57;2901875;79;21684;-83
2022/04/02 01:11:45;;;;;;;8.83;6.42;;;;;;;1.95;74.49;99182.14;2891243;79;20989;-82
2022/04/02 01:15:47;;;;;;;11.28;6.12;;;;;;;1.96;75.03;99182.52;2878226;78;21494;-84
2022/04/02 01:19:49;;;;;;;8.55;5.65;;;;;;;1.94;74.61;99197.52;2878949;77;21042;-83
2022/04/02 01:23:50;;;;;;;7.65;5.58;;;;;;;1.93;74.52;99196.69;2877517;78;20992;-82
2022/04/02 01:27:53;;;;;;;17.00;6.28;;;;;;;1.95;75.07;99205.75;2910433;79;21005;-82
2022/04/02 01:31:55;;;;;;;7.78;5.12;;;;;;;1.95;75.07;99208.37;2931323;79;21543;-83
2022/04/02 01:36:06;;;;;;;11.55;6.03;;;;;;;1.91;74.89;99205.58;2898477;79;21031;-83
2022/04/02 01:40:08;;;;;;;12.25;6.03;;;;;;;1.91;75.02;99212.13;2909112;79;21084;-83
2022/04/02 01:44:09;;;;;;;15.40;6.20;;;;;;;1.92;75.34;99213.81;2864345;79;21125;-80
2022/04/02 01:48:11;;;;;;;10.78;5.58;;;;;;;1.89;75.37;99221.88;2904443;78;21079;-83
2022/04/02 01:52:17;;;;;;;7.53;5.92;;;;;;;1.92;75.90;99213.36;2908804;79;21078;-83
2022/04/02 01:56:18;;;;;;;12.75;5.85;;;;;;;1.94;75.93;99211.48;2894410;78;21031;-83
2022/04/02 02:00:21;;;;;;;7.90;6.10;;;;;;;1.96;75.74;99221.41;2934658;78;21539;-83
2022/04/02 02:04:23;;;;;;;13.20;5.70;;;;;;;2.00;76.20;99218.95;2920272;79;20995;-82
2022/04/02 02:08:24;;;;;;;6.07;5.47;;;;;;;2.05;76.30;99221.29;2893846;78;21027;-83
2022/04/02 02:12:26;;;;;;;15.00;6.22;;;;;;;2.08;77.06;99222.41;2923738;79;20964;-82
2022/04/02 02:16:27;;;;;;;12.53;6.03;;;;;;;2.04;77.64;99223.55;2917608;79;21008;-83
2022/04/02 02:20:29;;;;;;;12.58;8.13;;;;;;;2.04;78.76;99219.61;2964463;78;21007;-82
2022/04/02 02:24:32;;;;;;;13.13;7.42;;;;;;;1.95;79.80;99225.42;2938682;79;20999;-83
2022/04/02 02:28:33;;;;;;;8.65;7.80;;;;;;;1.94;80.42;99228.53;2923348;80;21094;-82
2022/04/02 02:32:40;;;;;;;10.00;6.95;;;;;;;1.91;81.04;99223.94;2949513;79;21066;-83
2022/04/02 02:36:39;;;;;;;9.65;6.78;;;;;;;1.93;81.21;99226.85;2940376;78;21046;-83
2022/04/02 02:40:41;;;;;;;23.20;8.88;;;;;;;1.82;82.09;99222.28;2921440;79;21038;-83
2022/04/02 02:44:43;;;;;;;13.25;8.15;;;;;;;1.79;82.81;99221.63;2954355;78;20999;-83
2022/04/02 02:48:45;;;;;;;14.28;6.90;;;;;;;1.76;83.26;99225.27;2928558;79;21081;-84
2022/04/02 02:52:46;;;;;;;9.53;6.53;;;;;;;1.74;83.65;99225.83;2921897;78;21061;-83
2022/04/02 02:56:48;;;;;;;11.70;6.53;;;;;;;1.74;83.57;99229.77;2893498;79;21003;-82
2022/04/02 03:00:49;;;;;;;10.40;6.65;;;;;;;1.68;84.21;99230.16;2891608;78;21054;-83
2022/04/02 03:04:51;;;;;;;15.15;6.00;;;;;;;1.71;84.04;99233.44;2880929;78;21059;-81
2022/04/02 03:08:53;;;;;;;8.60;5.12;;;;;;;1.70;83.78;99228.28;2895164;78;21007;-83
2022/04/02 03:12:57;;;;;;;10.38;6.75;;;;;;;1.61;84.07;99222.30;2894447;79;21000;-83
2022/04/02 03:16:59;;;;;;;11.10;5.85;;;;;;;1.42;82.17;99234.74;2885610;79;21507;-83
2022/04/02 03:21:01;;;;;;;10.80;5.42;;;;;;;1.39;81.46;99234.11;2869734;80;21020;-82
2022/04/02 03:25:03;;;;;;;12.20;5.33;;;;;;;1.39;80.77;99237.55;2881898;80;20964;-83
2022/04/02 03:29:05;;;;;;;9.25;6.55;;;;;;;1.48;80.63;99236.16;2878204;80;20996;-83
2022/04/02 03:33:08;;;;;;;10.10;6.33;;;;;;;1.52;80.33;99231.09;2872972;80;20992;-83
2022/04/02 03:37:10;;;;;;;9.40;5.93;;;;;;;1.62;80.48;99230.55;2860288;80;21000;-83
2022/04/02 03:41:13;;;;;;;10.58;6.28;;;;;;;1.66;79.64;99230.23;2871361;79;21000;-84
2022/04/02 03:45:17;;;;;;;9.23;5.00;;;;;;;1.62;78.87;99226.61;2880445;79;21110;-83
2022/04/02 03:49:19;;;;;;;10.08;6.30;;;;;;;1.58;77.77;99233.81;2837393;80;21107;-82
2022/04/02 03:53:20;;;;;;;14.50;7.40;;;;;;;1.53;76.99;99240.64;2874602;79;21535;-82
2022/04/02 03:57:22;;;;;;;10.95;5.47;;;;;;;1.50;75.83;99250.00;2868645;80;21102;-82
2022/04/02 04:01:23;;;;;;;12.82;7.17;;;;;;;1.48;75.60;99249.26;2861775;80;21110;-82
2022/04/02 04:05:25;;;;;;;9.20;5.35;;;;;;;1.45;75.11;99249.91;2867393;79;21077;-82
2022/04/02 04:09:27;;;;;;;7.87;6.28;;;;;;;1.47;75.80;99247.58;2925312;79;21079;-82
2022/04/02 04:13:28;;;;;;;8.75;4.97;;;;;;;1.43;75.23;99251.33;2925156;80;21563;-83
2022/04/02 04:17:30;;;;;;;8.93;5.03;;;;;;;1.45;75.71;99255.14;2891756;80;21585;-83
2022/04/02 04:21:31;;;;;;;6.97;5.15;;;;;;;1.41;75.07;99257.13;2891271;79;20992;-82
2022/04/02 04:25:33;;;;;;;6.58;4.50;;;;;;;1.36;75.83;99269.64;2878263;78;21117;-83
2022/04/02 04:29:36;;;;;;;8.60;5.08;;;;;;;1.38;75.95;99267.32;2878714;80;21023;-83
2022/04/02 04:33:38;;;;;;;11.70;4.78;;;;;;;1.38;74.88;99266.01;2863557;79;21098;-83
2022/04/02 04:37:39;;;;;;;15.32;7.72;;;;;;;1.33;75.53;99268.52;2852233;80;21100;-85
2022/04/02 04:41:41;;;;;;;14.15;4.83;;;;;;;1.34;74.96;99268.45;2850062;80;21821;-85
2022/04/02 04:45:43;;;;;;;10.10;5.78;;;;;;;1.29;75.16;99274.44;2867920;79;21062;-86
2022/04/02 04:49:45;;;;;;;9.23;5.12;;;;;;;1.28;75.81;99278.81;2878253;80;21524;-85
2022/04/02 04:53:46;;;;;;;9.53;4.55;;;;;;;1.25;74.76;99280.31;2880077;79;21904;-85
2022/04/02 04:57:49;;;;;;;8.15;5.00;;;;;;;1.30;74.89;99280.50;2871105;79;22714;-84
2022/04/02 05:01:50;;;;;;;12.20;5.83;;;;;;;1.28;75.02;99279.30;2839182;80;21127;-84
2022/04/02 05:05:55;;;;;;;8.00;4.75;;;;;;;1.28;75.04;99287.16;2868925;80;21084;-85
2022/04/02 05:09:57;;;;;;;8.28;5.05;;;;;;;1.31;74.30;99293.98;2890207;79;21558;-83
2022/04/02 05:13:59;;;;;;;9.20;5.65;;;;;;;1.24;74.11;99287.80;2887679;79;21535;-83
2022/04/02 05:18:02;;;;;;;10.18;5.62;;;;;;;1.33;75.06;99292.11;2881133;80;21004;-83
2022/04/02 05:22:04;;;;;;;12.73;7.33;;;;;;;1.33;73.60;99287.72;2876578;80;21012;-83
2022/04/02 05:26:06;;;;;;;10.70;5.35;;;;;;;1.32;73.62;99290.42;2839332;80;21011;-83
2022/04/02 05:30:09;;;;;;;8.90;5.28;;;;;;;1.34;74.45;99289.86;2850034;81;21554;-82
2022/04/02 05:34:11;;;;;;;14.95;5.62;;;;;;;1.28;72.97;99290.61;2942623;79;21055;-83
2022/04/02 05:38:13;;;;;;;6.40;4.95;;;;;;;1.28;73.75;99287.16;2869811;80;21543;-83
2022/04/02 05:42:14;;;;;;;7.47;4.45;;;;;;;1.31;73.10;99300.53;2870425;80;21036;-83
2022/04/02 05:46:16;;;;;;;9.48;4.83;;;;;;;1.32;72.75;99304.38;2943643;79;21527;-83
2022/04/02 05:50:21;;;;;;;9.65;4.78;;;;;;;1.31;72.79;99309.25;2942008;79;20991;-82
2022/04/02 05:54:22;;;;;;;10.15;4.45;;;;;;;1.30;72.74;99300.16;2868663;79;21058;-83
2022/04/02 05:58:24;;;;;;;9.23;6.67;;;;;;;1.37;72.45;99314.56;2872172;79;20968;-83
2022/04/02 06:02:26;;;;;;;8.50;4.22;;;;;;;1.40;71.64;99320.96;2875534;79;21007;-81
2022/04/02 06:06:27;;;;;;;9.75;6.05;;;;;;;1.50;72.23;99324.70;2880294;79;21058;-84
2022/04/02 06:10:29;;;;;;;15.70;6.97;;;;;;;1.51;71.37;99325.08;2954407;78;21594;-83
2022/04/02 06:14:30;;;;;;;10.68;5.53;;;;;;;1.49;70.52;99342.68;2922200;79;21003;-84
2022/04/02 06:18:32;;;;;;;8.25;5.53;;;;;;;1.52;70.57;99337.25;2924353;79;21577;-83
2022/04/02 06:22:35;;;;;;;7.60;4.22;;;;;;;1.58;71.01;99341.77;2858901;80;21023;-83
2022/04/02 06:26:37;;;;;;;8.18;5.50;;;;;;;1.63;71.14;99344.47;2953716;79;21004;-82
2022/04/02 06:30:39;;;;;;;7.28;4.80;;;;;;;1.64;70.89;99341.39;2918630;78;20991;-83
2022/04/02 06:34:40;;;;;;;16.15;4.72;;;;;;;1.70;71.01;99346.27;2895937;79;21072;-82
2022/04/02 06:38:42;;;;;;;7.00;4.78;;;;;;;1.72;69.51;99350.94;2898710;78;20992;-83
2022/04/02 06:42:44;;;;;;;6.72;4.80;;;;;;;1.83;69.48;99355.54;2891021;78;21011;-82
2022/04/02 06:46:45;;;;;;;8.90;3.87;;;;;;;1.90;68.59;99359.95;2864274;79;21008;-82
2022/04/02 06:50:47;;;;;;;5.92;4.72;;;;;;;1.92;68.89;99360.70;2891288;79;21011;-82
2022/04/02 06:54:49;;;;;;;8.38;6.28;;;;;;;1.91;67.63;99358.56;2874969;79;21039;-82
2022/04/02 06:58:50;;;;;;;7.97;4.85;;;;;;;2.06;67.83;99358.08;2876418;78;20952;-82
2022/04/02 07:02:52;;;;;;;5.25;3.65;;;;;;;2.12;67.06;99364.25;2863604;79;20972;-82
2022/04/02 07:06:54;;;;;;;8.65;4.70;;;;;;;2.25;67.26;99366.13;2878144;78;21531;-81
2022/04/02 07:10:57;;;;;;;8.38;4.47;;;;;;;2.27;65.87;99371.67;2893151;79;21054;-82
2022/04/02 07:14:59;;;;;;;8.63;4.87;;;;;;;2.34;64.71;99368.17;2857974;79;21113;-80
2022/04/02 07:19:01;;;;;;;6.20;3.80;;;;;;;2.53;66.50;99360.45;2870514;79;21122;-81
2022/04/02 07:23:04;;;;;;;7.33;3.83;;;;;;;2.57;65.88;99377.72;2874064;80;21037;-81
2022/04/02 07:27:07;;;;;;;8.25;4.42;;;;;;;2.70;66.26;99368.10;2852362;80;21634;-80
2022/04/02 07:31:09;;;;;;;5.40;4.15;;;;;;;2.80;65.55;99374.92;2861181;79;21023;-82
2022/04/02 07:35:10;;;;;;;9.78;5.95;;;;;;;2.88;64.29;99368.35;2849197;79;21010;-80
2022/04/02 07:39:32;;;;;;;7.90;4.35;;;;;;;2.99;63.89;99381.61;2852731;80;21094;-80
2022/04/02 07:43:46;;;;;;;6.95;3.72;;;;;;;3.13;63.43;99387.28;2872790;79;21123;-80
2022/04/02 07:47:55;;;;;;;8.03;4.60;;;;;;;3.25;62.21;99393.55;2851731;80;21071;-80
2022/04/02 07:51:57;;;;;;;7.45;4.72;;;;;;;3.47;64.57;99392.13;2855853;79;21536;-80
2022/04/02 07:56:03;;;;;;;7.22;3.77;;;;;;;3.44;61.90;99399.73;2859992;80;21044;-80
2022/04/02 08:00:06;;;;;;;13.25;4.50;;;;;;;3.59;62.17;99391.28;2852575;80;21056;-80
2022/04/02 08:04:12;;;;;;;9.30;4.10;;;;;;;3.61;62.39;99388.56;2843812;80;21772;-84
2022/04/02 08:08:14;;;;;;;8.08;4.70;;;;;;;3.62;61.99;99398.13;2865622;80;21487;-81
2022/04/02 08:12:16;;;;;;;7.00;4.70;;;;;;;3.70;62.87;99403.25;2852796;79;21474;-79
2022/04/02 08:16:18;;;;;;;9.10;4.67;;;;;;;3.75;61.90;99396.38;2853793;81;21702;-80
2022/04/02 08:20:20;;;;;;;6.65;3.52;;;;;;;3.77;61.92;99401.05;2868264;79;21040;-80
2022/04/02 08:24:21;;;;;;;5.65;3.90;;;;;;;3.91;61.04;99414.58;2858764;79;21511;-79
2022/04/02 08:28:31;;;;;;;6.92;4.20;;;;;;;4.10;61.06;99406.25;2859509;79;21067;-81
2022/04/02 08:33:18;;;;;;;7.35;3.58;;;;;;;4.18;59.53;99418.88;2856143;80;21062;-79
2022/04/02 08:37:29;;;;;;;10.40;4.33;;;;;;;4.25;59.81;99404.83;2853139;80;21044;-78
2022/04/02 08:42:12;;;;;;;6.15;3.98;;;;;;;4.50;60.60;99414.94;2857104;80;20995;-79
2022/04/02 08:46:50;;;;;;;5.75;3.83;;;;;;;4.50;57.60;99420.21;2859524;79;21099;-79
2022/04/02 08:51:17;;;;;;;7.25;4.87;;;;;;;4.47;58.79;99441.50;2833595;81;21114;-79
2022/04/02 08:55:27;;;;;;;4.87;3.65;;;;;;;4.51;59.41;99432.43;2853195;81;21018;-79
2022/04/02 08:59:40;;;;;;;6.10;4.05;;;;;;;4.68;59.55;99416.77;2883132;80;21066;-79
2022/04/02 09:03:58;;;;;;;8.50;5.35;;;;;;;4.82;58.49;99411.81;2852553;81;21574;-79
2022/04/02 09:08:45;;;;;;;4.45;3.50;;;;;;;4.93;59.65;99420.27;2865094;80;20967;-79
2022/04/02 09:13:11;;;;;;;4.45;3.98;;;;;;;5.03;57.88;99418.66;2773878;83;20989;-79
2022/04/02 09:17:54;;;;;;;7.03;4.40;;;;;;;5.15;56.69;99422.20;2750177;83;21640;-79
2022/04/02 09:22:22;;;;;;;7.05;4.00;;;;;;;5.23;57.81;99427.73;2748457;85;21059;-77
2022/04/02 09:26:52;;;;;;;3.80;2.85;;;;;;;5.22;56.26;99427.38;2755319;83;21013;-80
2022/04/02 09:31:49;;;;;;;10.95;4.28;;;;;;;5.25;57.35;99429.78;2772726;82;21069;-80
2022/04/02 09:36:04;;;;;;;5.10;3.92;;;;;;;5.21;56.48;99423.52;2787003;83;21045;-80
2022/04/02 09:40:09;;;;;;;6.33;4.00;;;;;;;5.28;57.27;99425.59;2766924;83;21033;-81
2022/04/02 09:44:42;;;;;;;4.00;3.42;;;;;;;5.38;56.05;99432.84;2789637;83;21030;-79
2022/04/02 09:49:00;;;;;;;6.30;3.08;;;;;;;5.44;56.22;99427.10;2847578;79;21054;-80
2022/04/02 09:53:29;;;;;;;4.65;4.25;;;;;;;5.49;56.36;99432.05;2938682;78;21372;-81
2022/04/02 09:58:09;;;;;;;7.40;4.22;;;;;;;5.60;56.14;99426.82;2886502;79;21504;-80
2022/04/02 10:02:16;;;;;;;9.95;4.85;;;;;;;5.74;56.37;99426.23;2848672;80;20971;-81
2022/04/02 10:06:41;;;;;;;7.25;4.50;;;;;;;5.92;59.51;99433.26;2879475;79;21058;-80
2022/04/02 10:10:45;;;;;;;5.55;4.55;;;;;;;5.96;54.91;99418.86;2928403;79;21817;-80
2022/04/02 10:14:52;;;;;;;5.33;3.60;;;;;;;6.12;55.19;99439.67;2829938;81;21020;-79
2022/04/02 10:18:56;;;;;;;6.33;4.03;;;;;;;6.25;55.03;99423.71;2923533;78;21546;-79
2022/04/02 10:23:23;;;;;;;10.05;6.30;;;;;;;6.28;54.21;99424.33;2941678;78;21016;-80
2022/04/02 10:27:35;;;;;;;7.17;4.60;;;;;;;6.38;53.68;99427.55;2942559;79;21043;-80
2022/04/02 10:31:41;;;;;;;6.45;4.75;;;;;;;6.48;54.66;99421.92;2929193;79;21079;-82
2022/04/02 10:35:46;;;;;;;4.28;3.40;;;;;;;6.49;53.61;99420.95;2937413;79;21023;-82
2022/04/02 10:39:58;;;;;;;5.78;3.55;;;;;;;6.52;53.70;99419.89;2952485;78;21079;-81
2022/04/02 10:44:08;;;;;;;4.53;3.58;;;;;;;6.60;54.15;99435.97;2893714;77;21027;-80
2022/04/02 10:48:13;;;;;;;7.55;4.25;;;;;;;6.68;52.85;99445.47;2866303;79;21541;-83
2022/04/02 10:52:16;;;;;;;6.05;4.25;;;;;;;6.78;53.84;99421.79;2896859;79;21028;-82
2022/04/02 10:56:21;;;;;;;8.85;5.22;;;;;;;6.87;52.38;99421.50;2862413;79;21086;-82
2022/04/02 11:00:26;;;;;;;4.28;3.25;;;;;;;7.02;53.18;99439.75;2875085;78;21000;-83
2022/04/02 11:04:59;;;;;;;10.00;4.58;;;;;;;7.13;52.22;99438.41;2855922;80;21598;-82
2022/04/02 11:09:01;;;;;;;11.90;4.60;;;;;;;7.22;52.80;99417.81;2811998;81;21508;-82
2022/04/02 11:13:06;;;;;;;11.03;5.35;;;;;;;7.24;50.73;99421.16;2819676;82;21009;-83
2022/04/02 11:17:08;;;;;;;7.40;4.83;;;;;;;7.26;51.74;99421.05;2789659;83;21042;-83
2022/04/02 11:21:12;;;;;;;6.55;4.60;;;;;;;7.19;48.42;99416.74;2775367;82;21085;-82
2022/04/02 11:25:35;;;;;;;10.50;4.70;;;;;;;7.28;51.52;99423.09;2824199;81;21558;-82
2022/04/02 11:29:36;;;;;;;14.50;5.42;;;;;;;7.40;50.40;99423.88;2843310;81;21104;-82
2022/04/02 11:33:52;;;;;;;17.17;4.95;;;;;;;7.55;48.93;99423.08;2840722;81;21697;-82
2022/04/02 11:38:27;;;;;;;6.55;4.78;;;;;;;7.64;49.88;99420.16;2848090;80;21559;-83
2022/04/02 11:42:33;;;;;;;9.20;5.10;;;;;;;7.60;49.77;99424.03;2837984;79;20992;-82
2022/04/02 11:46:55;;;;;;;8.18;5.10;;;;;;;7.70;49.07;99427.11;2881995;80;21086;-82
2022/04/02 11:51:14;;;;;;;9.33;5.45;;;;;;;7.71;48.58;99411.58;2884429;79;21269;-85
2022/04/02 11:55:16;;;;;;;9.78;4.47;;;;;;;7.72;48.24;99408.46;2876267;79;21003;-84
2022/04/02 11:59:18;;;;;;;10.70;4.58;;;;;;;7.92;50.04;99413.87;2856399;80;21605;-85
2022/04/02 12:03:29;;;;;;;8.68;4.08;;;;;;;7.93;49.44;99404.46;2883701;80;21003;-85
2022/04/02 12:07:49;;;;;;;14.28;6.22;;;;;;;7.81;48.07;99405.02;2929616;79;21078;-81
2022/04/02 12:12:00;;;;;;;7.33;3.17;;;;;;;7.77;47.80;99402.28;2909014;79;21130;-81
2022/04/02 12:16:13;;;;;;;5.05;3.80;;;;;;;7.84;47.76;99422.47;2915841;79;20983;-81
2022/04/02 12:20:11;;;;;;;5.67;3.77;;;;;;;8.03;48.32;99405.02;2910984;80;21039;-81
2022/04/02 12:24:14;;;;;;;10.25;4.03;;;;;;;8.10;48.11;99404.36;2865377;80;20995;-79
2022/04/02 12:28:18;;;;;;;6.97;3.60;;;;;;;8.19;48.78;99437.17;2864910;80;20980;-81
2022/04/02 12:32:39;;;;;;;7.83;3.87;;;;;;;8.25;46.86;99411.94;2830930;80;20976;-82
2022/04/02 12:36:43;;;;;;;9.28;3.33;;;;;;;8.44;46.93;99422.63;2863474;80;21051;-83
2022/04/02 12:40:45;;;;;;;9.60;4.17;;;;;;;8.68;50.30;99419.33;2847778;80;21023;-83
2022/04/02 12:44:51;;;;;;;8.68;3.83;;;;;;;8.75;48.87;99403.25;2849879;80;21072;-84
2022/04/02 12:48:54;;;;;;;8.38;3.27;;;;;;;8.66;46.68;99426.11;2872909;80;21540;-84
2022/04/02 12:52:56;;;;;;;8.28;3.60;;;;;;;8.73;47.15;99412.30;2868787;80;21067;-83
2022/04/02 12:57:13;;;;;;;8.43;3.52;;;;;;;8.73;46.52;99407.00;2856650;80;21052;-82
2022/04/02 13:01:19;;;;;;;9.45;4.70;;;;;;;8.73;46.58;99411.80;2909692;79;21000;-82
2022/04/02 13:05:20;;;;;;;8.40;3.60;;;;;;;8.70;44.66;99418.70;2891042;79;20979;-85
2022/04/02 13:09:33;;;;;;;17.07;4.22;;;;;;;8.65;41.56;99415.63;2920168;79;21079;-88
2022/04/02 13:13:43;;;;;;;4.33;3.47;;;;;;;8.69;44.38;99423.19;2835689;80;21699;-83
2022/04/02 13:22:12;;;;;;;9.18;3.83;;;;;;;8.62;45.79;99415.40;2876098;79;21055;-84
2022/04/02 13:26:14;;;;;;;5.10;3.58;;;;;;;8.65;44.71;99424.91;2852078;80;21044;-82
2022/04/02 13:30:17;;;;;;;6.60;3.12;;;;;;;8.71;46.98;99430.98;2870640;80;21008;-86
2022/04/02 13:34:24;;;;;;;10.15;3.98;;;;;;;8.68;47.35;99433.91;2923129;79;21050;-83
2022/04/02 13:38:52;;;;;;;9.78;3.85;;;;;;;8.55;45.54;99419.10;2933118;80;21094;-85
2022/04/02 13:43:00;;;;;;;4.97;3.02;;;;;;;8.53;43.64;99429.47;2919850;79;21075;-84
2022/04/02 13:47:07;;;;;;;9.13;3.47;;;;;;;8.57;45.47;99430.88;2918818;79;21672;-84
2022/04/02 13:51:11;;;;;;;8.23;3.33;;;;;;;8.62;44.75;99441.91;2906858;80;21436;-83
2022/04/02 13:55:15;;;;;;;12.95;4.37;;;;;;;8.60;43.62;99435.91;2908288;80;21634;-83
2022/04/02 13:59:20;;;;;;;8.73;3.00;;;;;;;8.68;44.35;99436.09;2903841;79;20991;-82
2022/04/02 14:03:23;;;;;;;10.48;3.62;;;;;;;8.77;45.43;99432.27;2915069;79;21526;-82
2022/04/02 14:07:31;;;;;;;12.50;4.53;;;;;;;8.77;44.57;99433.12;2893554;79;21026;-82
2022/04/02 14:11:39;;;;;;;13.53;3.60;;;;;;;8.71;44.21;99430.52;2829350;80;21054;-83
2022/04/02 14:15:45;;;;;;;11.48;3.72;;;;;;;8.65;44.24;99440.34;2868711;78;21058;-82
2022/04/02 14:19:49;;;;;;;11.12;3.62;;;;;;;8.65;43.17;99448.77;2856717;79;21063;-82
2022/04/02 14:24:27;;;;;;;14.68;4.87;;;;;;;8.63;42.35;99447.56;2885762;79;21090;-85
2022/04/02 14:29:24;;;;;;;12.70;3.60;;;;;;;8.59;42.69;99446.66;2883444;79;21066;-81
2022/04/02 14:34:02;;;;;;;9.17;3.73;;;;;;;8.64;44.51;99447.91;2874503;79;21074;-80
2022/04/02 14:38:15;;;;;;;6.83;2.92;;;;;;;8.49;44.65;99475.75;2902028;79;21023;-82
2022/04/02 14:42:42;;;;;;;10.70;3.60;;;;;;;8.42;42.42;99460.35;2875723;80;21550;-81
2022/04/02 14:47:25;;;;;;;8.48;4.65;;;;;;;8.27;43.00;99461.19;2799477;81;21036;-82
2022/04/02 14:52:20;;;;;;;13.32;4.28;;;;;;;8.34;46.02;99460.66;2760236;82;21027;-81
2022/04/02 14:56:41;;;;;;;13.75;4.65;;;;;;;8.33;43.61;99470.44;2784408;81;21118;-80
2022/04/02 15:01:36;;;;;;;3.83;2.00;;;;;;;8.35;44.69;99453.91;2835469;81;21026;-80
2022/04/02 15:06:00;;;;;;;11.80;4.30;;;;;;;8.31;42.64;99470.20;2765716;84;21108;-81
2022/04/02 15:10:28;;;;;;;9.70;4.00;;;;;;;8.26;44.29;99469.29;2764309;82;21055;-81
2022/04/02 15:14:30;;;;;;;17.25;4.67;;;;;;;8.26;45.01;99460.02;2821765;82;21607;-80
2022/04/02 15:18:32;;;;;;;9.50;4.30;;;;;;;8.21;45.58;99467.02;2849495;80;21074;-80
2022/04/02 15:55:55;;;;;;;12.90;6.25;;;;;;;7.93;45.82;99476.47;2790607;80;21078;-80
2022/04/02 16:00:02;;;;;;;20.48;4.03;;;;;;;7.94;46.35;99478.14;2806075;82;21045;-80
2022/04/02 16:04:23;;;;;;;11.28;5.12;;;;;;;7.84;44.61;99491.31;2825269;80;21028;-80
2022/04/02 16:08:21;;;;;;;12.90;4.22;;;;;;;7.86;45.23;99492.88;2739272;84;21646;-80
2022/04/02 16:12:29;;;;;;;10.48;3.30;;;;;;;7.78;44.03;99499.77;2751401;84;21111;-80
2022/04/02 16:16:33;;;;;;;17.80;4.67;;;;;;;7.71;44.33;99492.31;2803518;81;21033;-80
2022/04/02 16:20:34;;;;;;;18.25;5.35;;;;;;;7.68;45.13;99499.70;2823560;81;20995;-79
2022/04/02 16:25:02;;;;;;;10.72;5.15;;;;;;;7.64;46.78;99501.74;2827980;82;21643;-80
2022/04/02 16:29:06;;;;;;;;;;;;;;;7.57;44.67;99506.69;2844044;81;21043;-80
2022/04/02 16:33:08;;;;;;;8.23;4.58;;;;;;;7.54;45.55;99513.56;2855292;80;20105;-79
2022/04/02 16:37:15;;;;;;;31.05;5.33;;;;;;;7.48;44.54;99517.19;2846528;80;21558;-79
2022/04/02 16:41:17;;;;;;;12.85;5.65;;;;;;;7.50;45.99;99528.48;2816909;81;21036;-79
2022/04/02 16:45:18;;;;;;;13.78;5.00;;;;;;;7.42;46.95;99529.11;2815270;82;21030;-80
2022/04/02 16:49:21;;;;;;;8.95;4.60;;;;;;;7.29;46.31;99528.80;2798753;82;21068;-80
2022/04/02 16:53:25;;;;;;;13.62;4.83;;;;;;;7.16;45.91;99543.95;2823108;80;21555;-80
2022/04/02 16:57:32;;;;;;;35.55;7.33;;;;;;;7.10;46.16;99542.63;2706820;84;21044;-80
2022/04/02 17:01:43;;;;;;;11.95;5.37;;;;;;;7.05;46.59;99554.53;2803760;81;21084;-79
2022/04/02 17:05:47;;;;;;;7.85;5.08;;;;;;;6.90;45.76;99557.91;2838118;80;21027;-82
2022/04/02 17:09:47;;;;;;;14.70;5.37;;;;;;;6.81;46.91;99559.00;2795709;82;21058;-81
2022/04/02 17:13:49;;;;;;;8.90;5.80;;;;;;;6.75;47.44;99566.06;2737054;84;21125;-82
2022/04/02 17:17:50;;;;;;;10.55;4.65;;;;;;;6.62;47.05;99574.59;2741753;84;21087;-82
2022/04/02 17:21:54;;;;;;;9.75;5.45;;;;;;;6.44;47.33;99581.65;2735619;84;21024;-86
2022/04/02 17:25:55;;;;;;;24.95;5.75;;;;;;;6.35;47.87;99584.97;2753812;84;21136;-81
2022/04/02 17:29:58;;;;;;;14.53;6.15;;;;;;;6.23;47.61;99595.52;2824705;82;21031;-82
2022/04/02 17:34:24;;;;;;;13.88;6.40;;;;;;;6.18;47.46;99603.41;2753498;82;21053;-83
2022/04/02 17:38:28;;;;;;;19.60;6.78;;;;;;;6.10;48.42;99599.55;2729906;85;21584;-82
2022/04/02 17:42:44;;;;;;;16.50;7.15;;;;;;;6.00;48.68;99605.11;2746016;83;21026;-80
2022/04/02 17:47:05;;;;;;;11.03;5.35;;;;;;;5.93;48.21;99618.41;2755711;84;21057;-82
2022/04/02 17:51:07;;;;;;;13.35;5.75;;;;;;;5.91;48.61;99623.78;2776626;83;21068;-80
2022/04/02 17:55:25;;;;;;;11.33;5.47;;;;;;;5.85;47.93;99637.44;2729215;83;21096;-82
2022/04/02 17:59:27;;;;;;;16.67;6.45;;;;;;;5.82;47.82;99643.77;2761001;83;21057;-82
2022/04/02 18:03:41;;;;;;;10.75;5.30;;;;;;;5.83;48.33;99654.69;2749003;83;21605;-81
2022/04/02 18:07:42;;;;;;;11.65;4.75;;;;;;;5.81;48.10;99659.73;2741629;84;20986;-83
2022/04/02 18:11:45;;;;;;;5.90;3.72;;;;;;;5.77;48.21;99667.48;2769921;83;21053;-82
2022/04/02 18:15:46;;;;;;;10.90;3.60;;;;;;;5.76;48.59;99674.58;2770506;83;21047;-81
2022/04/02 18:19:48;;;;;;;5.42;4.20;;;;;;;5.71;48.77;99683.30;2765551;82;21556;-82
2022/04/02 18:23:49;;;;;;;7.17;3.85;;;;;;;5.66;49.33;99686.72;2770742;82;21044;-82
2022/04/02 18:27:51;;;;;;;5.90;3.50;;;;;;;5.57;49.80;99686.90;2838947;80;21063;-84
2022/04/02 18:31:52;;;;;;;7.92;4.35;;;;;;;5.50;50.42;99685.20;2873795;80;21592;-84
2022/04/02 18:35:54;;;;;;;11.78;6.75;;;;;;;5.39;50.65;99696.96;2892950;79;21531;-84
2022/04/02 18:39:56;;;;;;;13.50;6.95;;;;;;;5.34;50.91;99695.95;2910310;78;21529;-84
2022/04/02 18:43:58;;;;;;;14.47;8.10;;;;;;;5.26;50.77;99709.67;2890836;78;21195;-84
2022/04/02 18:48:00;;;;;;;9.68;7.30;;;;;;;5.18;51.08;99713.32;2864490;80;21019;-85
2022/04/02 18:52:01;;;;;;;12.23;5.53;;;;;;;5.09;50.92;99716.11;2825849;81;21063;-85
2022/04/02 18:56:03;;;;;;;16.93;6.65;;;;;;;5.02;51.42;99721.44;2821334;80;21019;-85
2022/04/02 19:00:07;;;;;;;7.50;5.78;;;;;;;4.97;51.68;99728.80;2834250;81;20992;-82
2022/04/02 19:04:09;;;;;;;10.43;7.35;;;;;;;4.88;52.01;99734.20;2836456;81;21008;-85
2022/04/02 19:08:10;;;;;;;12.43;8.53;;;;;;;4.81;52.39;99740.84;2833953;81;21595;-85
2022/04/02 19:12:12;;;;;;;14.90;9.40;;;;;;;4.77;52.49;99741.52;2829471;81;20993;-85
2022/04/02 19:16:13;;;;;;;14.90;9.08;;;;;;;4.73;52.97;99751.06;2814277;81;21012;-83
2022/04/02 19:20:15;;;;;;;18.17;9.40;;;;;;;4.66;53.14;99756.72;2790131;83;21004;-85
2022/04/02 19:24:17;;;;;;;17.10;9.25;;;;;;;4.57;53.06;99763.43;2798761;82;21016;-85
2022/04/02 19:28:19;;;;;;;11.90;7.10;;;;;;;4.49;53.38;99770.14;2739245;83;21071;-84
2022/04/02 19:37:30;;;;;;;20.95;12.63;;;;;;;4.26;54.30;99780.37;2797854;83;21146;-85
2022/04/02 19:41:32;;;;;;;30.00;12.30;;;;;;;4.12;54.16;99787.34;2738337;83;21045;-83
2022/04/02 19:45:34;;;;;;;18.35;11.68;;;;;;;4.01;54.22;99785.88;2732581;83;21690;-85
2022/04/02 19:49:35;;;;;;;21.35;9.75;;;;;;;3.96;54.21;99785.33;2840400;81;21012;-84
2022/04/02 19:53:37;;;;;;;19.45;9.90;;;;;;;3.93;54.45;99788.13;2823454;82;20985;-85
2022/04/02 19:57:41;;;;;;;14.20;8.45;;;;;;;3.89;54.78;99793.20;2830073;81;21534;-85
2022/04/02 20:01:45;;;;;;;14.53;7.08;;;;;;;3.77;54.90;99795.67;2846360;81;21121;-86
2022/04/02 20:05:46;;;;;;;13.40;7.05;;;;;;;3.73;55.07;99803.35;2773984;82;21059;-85
2022/04/02 20:09:48;;;;;;;22.10;6.53;;;;;;;3.63;55.22;99800.44;2792434;82;21059;-84
2022/04/02 20:13:49;;;;;;;10.32;6.17;;;;;;;3.56;55.19;99807.02;2793355;81;21118;-84
2022/04/02 20:17:53;;;;;;;11.93;5.47;;;;;;;3.51;55.33;99812.55;2833280;82;21383;-85
2022/04/02 20:21:54;;;;;;;9.23;7.08;;;;;;;3.45;54.90;99816.87;2825701;82;21039;-84